Time;durP1;ratioP1;P1;durP2;ratioP2;P2;SDS_P1;SDS_P2;PMS_P1;PMS_P2;Temp;Humidity;BMP_temperature;BMP_pressure;BME280_temperature;BME280_humidity;BME280_pressure;Samples;Min_cycle;Max_cycle;Signal;HPM_P1;HPM_P2
2021/12/23 00:00:46;;;;;;;;;;;0.20;89.60;;;;;;5049001;28;20348;-67
2021/12/23 00:03:11;;;;;;;;;;;0.20;90.00;;;;;;5055921;28;19935;-67
2021/12/23 00:05:37;;;;;;;;;;;0.20;90.20;;;;;;5055901;28;19986;-67
2021/12/23 00:08:03;;;;;;;;;;;0.20;90.20;;;;;;5037868;28;19941;-67
2021/12/23 00:10:28;;;;;;;;;;;0.30;90.00;;;;;;5055731;28;19958;-67
2021/12/23 00:12:54;;;;;;;;;;;0.40;89.80;;;;;;5055710;28;19969;-67
2021/12/23 00:15:37;;;;;;;;;;;0.50;89.70;;;;;;5055705;28;19947;-66
2021/12/23 00:18:19;;;;;;;;;;;0.50;89.40;;;;;;5055717;28;20040;-67
2021/12/23 00:23:24;;;;;;;;;;;0.50;88.40;;;;;;5075851;28;19950;-67
2021/12/23 00:25:52;;;;;;;;;;;0.50;88.30;;;;;;5075442;28;19949;-67
2021/12/23 00:28:18;;;;;;;;;;;0.50;88.60;;;;;;5075438;28;19969;-67
2021/12/23 00:30:44;;;;;;;;;;;0.50;88.60;;;;;;5075430;28;20384;-67
2021/12/23 00:33:10;;;;;;;;;;;0.50;88.50;;;;;;5075353;28;19961;-67
2021/12/23 00:35:35;;;;;;;;;;;0.50;88.30;;;;;;5057367;28;19947;-67
2021/12/23 00:38:07;;;;;;;;;;;0.50;88.60;;;;;;5075372;28;19940;-67
2021/12/23 00:40:32;;;;;;;;;;;0.50;88.60;;;;;;5075288;28;20389;-67
2021/12/23 00:42:58;;;;;;;;;;;0.50;88.70;;;;;;5075294;28;19992;-67
2021/12/23 00:45:24;;;;;;;;;;;0.50;88.80;;;;;;5075210;28;20376;-67
2021/12/23 00:47:49;;;;;;;;;;;0.50;88.80;;;;;;5058707;28;20389;-67
2021/12/23 00:50:15;;;;;;;;;;;0.50;88.90;;;;;;5055120;28;19945;-67
2021/12/23 00:52:41;;;;;;;;;;;0.50;88.90;;;;;;5054863;28;19976;-67
2021/12/23 00:55:08;;;;;;;;;;;0.60;89.10;;;;;;5055035;28;20033;-67
2021/12/23 00:57:38;;;;;;;;;;;0.60;89.40;;;;;;5054940;28;19943;-67
2021/12/23 01:00:06;;;;;;;;;;;0.50;88.60;;;;;;5054917;28;19940;-67
2021/12/23 01:02:32;;;;;;;;;;;0.40;88.10;;;;;;5054872;28;19949;-67
2021/12/23 01:04:59;;;;;;;;;;;0.40;88.20;;;;;;5054827;28;20300;-67
2021/12/23 01:07:25;;;;;;;;;;;0.40;88.10;;;;;;5054786;28;19948;-67
2021/12/23 01:09:50;;;;;;;;;;;0.40;88.30;;;;;;5036789;28;19958;-67
2021/12/23 01:12:20;;;;;;;;;;;0.50;88.40;;;;;;5052713;28;19954;-67
2021/12/23 01:19:51;;;;;;;;;;;0.50;88.70;;;;;;5074457;28;19949;-67
2021/12/23 01:22:17;;;;;;;;;;;0.30;88.20;;;;;;5074704;28;19952;-67
2021/12/23 01:24:43;;;;;;;;;;;0.30;88.30;;;;;;5074471;28;19950;-67
2021/12/23 01:27:08;;;;;;;;;;;0.30;88.00;;;;;;5074362;28;19952;-66
2021/12/23 01:29:34;;;;;;;;;;;0.30;87.50;;;;;;5072489;28;20039;-67
2021/12/23 01:32:03;;;;;;;;;;;0.10;86.80;;;;;;5074244;28;20361;-67
2021/12/23 01:34:29;;;;;;;;;;;-3276.70;87.20;;;;;;5074294;28;19940;-67
2021/12/23 01:36:54;;;;;;;;;;;-3276.70;87.90;;;;;;5074211;28;19943;-67
2021/12/23 01:39:20;;;;;;;;;;;-3276.60;88.30;;;;;;5071861;28;20355;-67
2021/12/23 01:41:46;;;;;;;;;;;-3276.60;88.80;;;;;;5054139;28;20349;-67
2021/12/23 01:44:11;;;;;;;;;;;-3276.70;88.90;;;;;;5054122;28;19950;-67
2021/12/23 01:46:37;;;;;;;;;;;-3276.70;89.20;;;;;;5054284;28;20548;-67
2021/12/23 01:49:03;;;;;;;;;;;0.00;89.50;;;;;;5054013;28;19948;-67
2021/12/23 01:51:28;;;;;;;;;;;0.00;89.70;;;;;;5073498;28;19974;-67
2021/12/23 01:53:54;;;;;;;;;;;-3276.70;88.80;;;;;;5073810;28;20054;-66
2021/12/23 01:56:19;;;;;;;;;;;-3276.50;88.90;;;;;;5073804;28;20420;-67
2021/12/23 01:58:45;;;;;;;;;;;-3276.60;89.40;;;;;;5073803;28;20403;-67
2021/12/23 02:01:11;;;;;;;;;;;-3276.70;89.50;;;;;;5056716;28;19948;-67
2021/12/23 02:03:37;;;;;;;;;;;0.00;89.30;;;;;;5053790;28;20181;-67
2021/12/23 02:06:03;;;;;;;;;;;0.00;89.20;;;;;;5053714;28;20457;-67
2021/12/23 02:08:28;;;;;;;;;;;0.00;89.50;;;;;;5035660;28;19965;-66
2021/12/23 02:10:54;;;;;;;;;;;0.00;89.40;;;;;;5067573;28;19945;-67
2021/12/23 02:13:21;;;;;;;;;;;0.00;89.30;;;;;;5073454;28;19957;-67
2021/12/23 02:15:46;;;;;;;;;;;0.00;89.30;;;;;;5073510;28;19938;-67
2021/12/23 02:18:12;;;;;;;;;;;0.00;89.40;;;;;;5073471;28;20455;-67
2021/12/23 02:20:37;;;;;;;;;;;0.00;89.70;;;;;;5061434;28;20409;-67
2021/12/23 02:23:03;;;;;;;;;;;0.00;89.80;;;;;;5053018;28;19967;-67
2021/12/23 02:25:29;;;;;;;;;;;0.00;89.80;;;;;;5053354;28;20457;-67
2021/12/23 02:27:54;;;;;;;;;;;0.10;89.80;;;;;;5053238;28;19973;-67
2021/12/23 02:30:25;;;;;;;;;;;0.00;89.70;;;;;;5062083;28;20036;-66
2021/12/23 02:32:51;;;;;;;;;;;0.10;89.60;;;;;;5073196;28;20000;-67
2021/12/23 02:35:18;;;;;;;;;;;0.10;89.50;;;;;;5073236;28;19984;-66
2021/12/23 02:37:44;;;;;;;;;;;0.00;89.60;;;;;;5073237;28;19944;-67
2021/12/23 02:40:11;;;;;;;;;;;0.00;89.70;;;;;;5065457;28;19950;-67
2021/12/23 02:42:36;;;;;;;;;;;0.00;89.80;;;;;;5036258;28;20411;-67
2021/12/23 02:45:04;;;;;;;;;;;0.00;90.00;;;;;;5053091;28;19937;-67
2021/12/23 02:47:30;;;;;;;;;;;0.00;90.00;;;;;;5053074;28;19938;-67
2021/12/23 02:49:55;;;;;;;;;;;0.10;90.00;;;;;;5058080;28;19979;-67
2021/12/23 02:52:21;;;;;;;;;;;0.10;89.80;;;;;;5078657;22;19978;-67
2021/12/23 02:54:57;;;;;;;;;;;0.10;89.30;;;;;;5072984;28;20315;-67
2021/12/23 02:57:24;;;;;;;;;;;0.00;88.70;;;;;;5073283;28;19979;-67
2021/12/23 02:59:49;;;;;;;;;;;-3276.70;88.40;;;;;;5072750;28;19959;-67
2021/12/23 03:02:15;;;;;;;;;;;-3276.60;88.20;;;;;;5054938;28;20036;-67
2021/12/23 03:04:40;;;;;;;;;;;-3276.60;88.40;;;;;;5072925;28;19996;-67
2021/12/23 03:07:06;;;;;;;;;;;-3276.60;88.90;;;;;;5072919;28;20032;-67
2021/12/23 03:09:31;;;;;;;;;;;-3276.60;89.20;;;;;;5060614;28;20002;-67
2021/12/23 03:11:57;;;;;;;;;;;-3276.70;89.30;;;;;;5052857;28;19945;-67
2021/12/23 03:14:22;;;;;;;;;;;-3276.70;89.30;;;;;;5052686;28;19968;-67
2021/12/23 03:16:49;;;;;;;;;;;-3276.70;89.40;;;;;;5034927;28;19948;-67
2021/12/23 03:19:15;;;;;;;;;;;-3276.70;89.60;;;;;;5034921;28;19948;-67
2021/12/23 03:21:40;;;;;;;;;;;0.00;89.70;;;;;;5052511;28;19946;-66
2021/12/23 03:24:06;;;;;;;;;;;0.00;89.80;;;;;;5052736;28;19944;-67
2021/12/23 03:26:32;;;;;;;;;;;0.00;89.70;;;;;;5052569;28;20459;-67
2021/12/23 03:28:57;;;;;;;;;;;0.00;89.60;;;;;;5052724;28;20690;-67
2021/12/23 03:31:23;;;;;;;;;;;0.00;89.10;;;;;;5052933;28;19951;-67
2021/12/23 03:33:48;;;;;;;;;;;-3276.70;88.50;;;;;;5052551;28;20402;-67
2021/12/23 03:36:14;;;;;;;;;;;-3276.60;88.70;;;;;;5055597;28;20379;-67
2021/12/23 03:38:39;;;;;;;;;;;-3276.60;89.00;;;;;;5056454;28;19980;-67
2021/12/23 03:41:05;;;;;;;;;;;-3276.60;89.00;;;;;;5056198;28;19954;-66
2021/12/23 03:43:31;;;;;;;;;;;-3276.70;88.90;;;;;;5056386;28;19996;-67
2021/12/23 03:45:57;;;;;;;;;;;-3276.60;88.80;;;;;;5056353;28;20384;-66
2021/12/23 03:48:22;;;;;;;;;;;-3276.60;88.60;;;;;;5056289;28;19942;-67
2021/12/23 03:50:48;;;;;;;;;;;-3276.60;89.00;;;;;;5056023;28;20309;-67
2021/12/23 03:53:17;;;;;;;;;;;-3276.60;89.20;;;;;;5056010;28;20449;-67
2021/12/23 03:55:43;;;;;;;;;;;-3276.60;88.90;;;;;;5038292;28;20423;-67
2021/12/23 03:58:08;;;;;;;;;;;-3276.70;88.80;;;;;;5056092;28;19937;-67
2021/12/23 04:00:34;;;;;;;;;;;-3276.70;88.80;;;;;;5055822;28;19952;-67
2021/12/23 04:03:00;;;;;;;;;;;-3276.70;88.90;;;;;;5056060;28;20380;-66
2021/12/23 04:05:25;;;;;;;;;;;-3276.70;88.80;;;;;;5056006;28;19956;-67
2021/12/23 04:07:51;;;;;;;;;;;0.00;88.70;;;;;;5055957;28;19942;-67
2021/12/23 04:10:20;;;;;;;;;;;0.00;88.40;;;;;;5055547;28;19958;-67
2021/12/23 04:12:46;;;;;;;;;;;0.00;88.30;;;;;;5055775;28;19960;-67
2021/12/23 04:15:12;;;;;;;;;;;-3276.70;88.40;;;;;;5055790;28;19950;-67
2021/12/23 04:17:37;;;;;;;;;;;-3276.60;88.40;;;;;;5055765;28;19948;-67
2021/12/23 04:20:17;;;;;;;;;;;-3276.60;88.70;;;;;;5055536;28;19970;-67
2021/12/23 04:22:44;;;;;;;;;;;-3276.60;88.70;;;;;;5055903;28;19947;-67
2021/12/23 04:25:10;;;;;;;;;;;-3276.60;89.00;;;;;;5055629;28;19950;-67
2021/12/23 04:27:35;;;;;;;;;;;-3276.40;88.50;;;;;;5055374;28;20390;-66
2021/12/23 04:30:02;;;;;;;;;;;-3276.20;89.40;;;;;;5055255;28;20064;-67
2021/12/23 04:32:28;;;;;;;;;;;-3276.10;90.10;;;;;;5055438;28;19972;-67
2021/12/23 04:34:54;;;;;;;;;;;-3276.10;90.60;;;;;;5037504;28;20406;-67
2021/12/23 04:37:19;;;;;;;;;;;-3276.10;90.80;;;;;;5055060;28;20467;-66
2021/12/23 04:39:45;;;;;;;;;;;-3276.10;91.20;;;;;;5055105;28;19949;-67
2021/12/23 04:42:10;;;;;;;;;;;-3276.10;91.40;;;;;;5055532;28;20016;-67
2021/12/23 04:44:36;;;;;;;;;;;-3276.10;91.40;;;;;;5055264;28;20397;-67
2021/12/23 04:47:01;;;;;;;;;;;-3276.10;91.60;;;;;;5036954;28;20430;-67
2021/12/23 04:49:27;;;;;;;;;;;-3276.10;91.50;;;;;;5055143;28;19994;-67
2021/12/23 04:51:52;;;;;;;;;;;-3276.00;91.80;;;;;;5054539;28;20434;-67
2021/12/23 04:54:18;;;;;;;;;;;-3276.00;92.00;;;;;;5054995;28;20421;-67
2021/12/23 04:56:43;;;;;;;;;;;-3276.00;92.30;;;;;;5055012;28;19949;-67
2021/12/23 04:59:09;;;;;;;;;;;-3276.00;92.40;;;;;;5054981;28;20389;-67
2021/12/23 05:01:34;;;;;;;;;;;-3276.10;92.40;;;;;;5054635;28;20420;-67
2021/12/23 05:04:00;;;;;;;;;;;-3276.10;92.10;;;;;;5054907;28;19948;-66
2021/12/23 05:06:26;;;;;;;;;;;-3276.00;91.70;;;;;;5054840;28;20394;-67
2021/12/23 05:08:52;;;;;;;;;;;-3276.00;91.70;;;;;;5054727;28;19958;-66
2021/12/23 05:11:18;;;;;;;;;;;-3275.90;91.80;;;;;;5054155;28;19958;-67
2021/12/23 05:13:50;;;;;;;;;;;-3275.90;91.90;;;;;;5054582;28;20499;-67
2021/12/23 05:16:16;;;;;;;;;;;-3276.00;92.10;;;;;;5054683;28;19965;-67
2021/12/23 05:18:41;;;;;;;;;;;-3275.90;92.10;;;;;;5055054;28;19989;-66
2021/12/23 05:21:07;;;;;;;;;;;-3275.90;92.30;;;;;;5036290;28;19994;-66
2021/12/23 05:23:33;;;;;;;;;;;-3276.00;92.30;;;;;;5054376;28;19940;-67
2021/12/23 05:25:58;;;;;;;;;;;-3276.00;92.50;;;;;;5054200;28;19941;-67
2021/12/23 05:28:24;;;;;;;;;;;-3276.00;92.40;;;;;;5054281;28;20441;-67
2021/12/23 05:30:49;;;;;;;;;;;-3276.00;92.30;;;;;;5054017;28;19947;-67
2021/12/23 05:33:15;;;;;;;;;;;-3276.00;92.30;;;;;;5036060;28;20407;-67
2021/12/23 05:35:41;;;;;;;;;;;-3276.00;92.30;;;;;;5054157;28;20420;-67
2021/12/23 05:38:07;;;;;;;;;;;-3276.00;92.30;;;;;;5054130;28;19952;-66
2021/12/23 05:40:34;;;;;;;;;;;-3276.00;92.40;;;;;;5053804;28;19935;-67
2021/12/23 05:43:00;;;;;;;;;;;-3276.00;92.40;;;;;;5054038;28;19962;-67
2021/12/23 05:45:26;;;;;;;;;;;-3276.10;92.40;;;;;;5053927;28;20393;-67
2021/12/23 05:47:52;;;;;;;;;;;-3276.10;92.40;;;;;;5053927;28;19940;-67
2021/12/23 05:50:18;;;;;;;;;;;-3276.10;92.30;;;;;;5053676;28;19938;-67
2021/12/23 05:52:44;;;;;;;;;;;-3276.10;92.20;;;;;;5053572;28;20069;-67
2021/12/23 05:55:11;;;;;;;;;;;-3276.10;92.00;;;;;;5053760;28;20406;-67
2021/12/23 05:57:37;;;;;;;;;;;-3276.20;91.80;;;;;;5052987;28;19943;-67
2021/12/23 06:00:07;;;;;;;;;;;-3276.10;91.70;;;;;;5052813;28;19948;-67
2021/12/23 06:02:33;;;;;;;;;;;-3276.20;91.80;;;;;;5053515;28;19944;-67
2021/12/23 06:04:58;;;;;;;;;;;-3276.20;91.60;;;;;;5052672;28;19954;-67
2021/12/23 06:07:24;;;;;;;;;;;-3276.20;91.50;;;;;;5035062;28;19947;-67
2021/12/23 06:09:49;;;;;;;;;;;-3276.30;91.30;;;;;;5052602;28;19967;-67
2021/12/23 06:12:15;;;;;;;;;;;-3276.30;91.10;;;;;;5052584;28;20099;-67
2021/12/23 06:14:40;;;;;;;;;;;-3276.40;90.90;;;;;;5053460;28;19950;-67
2021/12/23 06:17:06;;;;;;;;;;;-3276.40;90.70;;;;;;5035529;28;19986;-67
2021/12/23 06:19:31;;;;;;;;;;;-3276.50;90.50;;;;;;5053237;28;19939;-67
2021/12/23 06:21:57;;;;;;;;;;;-3276.40;90.10;;;;;;5052511;28;20418;-67
2021/12/23 06:24:22;;;;;;;;;;;-3276.40;89.90;;;;;;5051801;28;20484;-67
2021/12/23 06:26:48;;;;;;;;;;;-3276.40;89.80;;;;;;5052653;28;19952;-67
2021/12/23 06:29:14;;;;;;;;;;;-3276.40;89.80;;;;;;5051563;28;19948;-67
2021/12/23 06:31:39;;;;;;;;;;;-3276.50;89.90;;;;;;5046738;28;20292;-67
2021/12/23 06:34:05;;;;;;;;;;;-3276.60;89.80;;;;;;5069202;28;20268;-67
2021/12/23 06:36:31;;;;;;;;;;;-3276.60;89.70;;;;;;5047980;28;19955;-67
2021/12/23 06:38:57;;;;;;;;;;;-3276.60;89.60;;;;;;5051959;28;19947;-67
2021/12/23 06:41:23;;;;;;;;;;;-3276.50;89.20;;;;;;5058870;28;19950;-66
2021/12/23 06:43:49;;;;;;;;;;;-3276.40;89.50;;;;;;5051658;28;20001;-67
2021/12/23 06:46:14;;;;;;;;;;;-3276.40;89.80;;;;;;5050969;28;20038;-66
2021/12/23 06:48:40;;;;;;;;;;;-3276.30;90.10;;;;;;5052582;28;19953;-67
2021/12/23 06:51:05;;;;;;;;;;;-3276.40;90.50;;;;;;5052155;28;19943;-66
2021/12/23 06:53:31;;;;;;;;;;;-3276.40;90.70;;;;;;5051593;28;20458;-66
2021/12/23 06:55:57;;;;;;;;;;;-3276.30;90.70;;;;;;5051391;28;19948;-67
2021/12/23 06:58:23;;;;;;;;;;;-3276.30;90.80;;;;;;5051880;28;19947;-66
2021/12/23 07:00:50;;;;;;;;;;;-3276.30;90.80;;;;;;5049246;28;20053;-66
2021/12/23 07:03:16;;;;;;;;;;;-3276.30;90.90;;;;;;5041848;28;19947;-66
2021/12/23 07:05:42;;;;;;;;;;;-3276.30;90.90;;;;;;5046793;28;19954;-66
2021/12/23 07:08:13;;;;;;;;;;;-3276.40;91.20;;;;;;5049050;28;19958;-66
2021/12/23 07:10:39;;;;;;;;;;;-3276.40;91.60;;;;;;5051894;28;19952;-66
2021/12/23 07:13:05;;;;;;;;;;;-3276.50;91.90;;;;;;5053233;28;19989;-67
2021/12/23 07:15:32;;;;;;;;;;;-3276.50;91.90;;;;;;5056802;28;20045;-66
2021/12/23 07:17:59;;;;;;;;;;;-3276.60;92.10;;;;;;5051445;28;20145;-67
2021/12/23 07:20:25;;;;;;;;;;;-3276.60;92.10;;;;;;5045147;28;20050;-67
2021/12/23 07:22:51;;;;;;;;;;;-3276.60;92.00;;;;;;5053291;28;19950;-66
2021/12/23 07:25:17;;;;;;;;;;;-3276.60;91.90;;;;;;5038172;28;19971;-66
2021/12/23 07:27:43;;;;;;;;;;;-3276.60;91.70;;;;;;5054798;28;19988;-67
2021/12/23 07:30:09;;;;;;;;;;;-3276.60;91.60;;;;;;5036459;28;20411;-66
2021/12/23 07:32:35;;;;;;;;;;;-3276.60;91.70;;;;;;5054904;28;19970;-67
2021/12/23 07:35:00;;;;;;;;;;;-3276.60;91.60;;;;;;5051555;28;19947;-67
2021/12/23 07:37:26;;;;;;;;;;;-3276.60;91.70;;;;;;5054021;28;20034;-66
2021/12/23 07:39:54;;;;;;;;;;;-3276.60;91.80;;;;;;5052654;28;20034;-66
2021/12/23 07:42:20;;;;;;;;;;;0.00;91.80;;;;;;5053569;28;19966;-67
2021/12/23 07:44:46;;;;;;;;;;;0.00;91.80;;;;;;5067468;28;20393;-73
2021/12/23 07:47:12;;;;;;;;;;;0.10;91.60;;;;;;5036179;28;19972;-69
2021/12/23 07:49:38;;;;;;;;;;;0.30;91.30;;;;;;5060166;28;19947;-77
2021/12/23 07:52:06;;;;;;;;;;;0.40;90.90;;;;;;5039405;28;19971;-65
2021/12/23 07:54:32;;;;;;;;;;;0.40;90.50;;;;;;5048042;28;19967;-65
2021/12/23 07:56:57;;;;;;;;;;;0.40;90.10;;;;;;5050375;28;19936;-66
2021/12/23 08:01:23;;;;;;;;;;;0.50;89.70;;;;;;5103247;27;19949;-65
2021/12/23 08:03:48;;;;;;;;;;;0.50;89.00;;;;;;5092232;28;19951;-65
2021/12/23 08:06:14;;;;;;;;;;;0.70;88.70;;;;;;5089201;28;19999;-65
2021/12/23 08:08:40;;;;;;;;;;;0.70;88.20;;;;;;5091296;28;20011;-65
2021/12/23 08:11:08;;;;;;;;;;;0.50;88.30;;;;;;5097380;28;19948;-66
2021/12/23 08:13:34;;;;;;;;;;;0.50;88.60;;;;;;5084878;28;20040;-69
2021/12/23 08:16:01;;;;;;;;;;;0.20;89.20;;;;;;5093740;28;19942;-65
2021/12/23 08:18:27;;;;;;;;;;;0.00;89.90;;;;;;5092397;28;19945;-72
2021/12/23 08:20:53;;;;;;;;;;;0.00;90.60;;;;;;5090557;28;19976;-71
2021/12/23 08:23:18;;;;;;;;;;;0.00;90.60;;;;;;5088587;28;19949;-66
2021/12/23 08:25:45;;;;;;;;;;;0.00;91.00;;;;;;5091403;28;20392;-67
2021/12/23 08:28:11;;;;;;;;;;;0.00;91.20;;;;;;5092038;28;19949;-66
2021/12/23 08:30:39;;;;;;;;;;;0.00;91.60;;;;;;5089901;28;19986;-66
2021/12/23 08:33:04;;;;;;;;;;;0.20;91.70;;;;;;5089746;28;20419;-67
2021/12/23 08:35:30;;;;;;;;;;;0.30;91.70;;;;;;5089277;28;19952;-71
2021/12/23 08:37:56;;;;;;;;;;;0.40;91.90;;;;;;5088782;28;20061;-67
2021/12/23 08:40:23;;;;;;;;;;;0.50;91.80;;;;;;5086149;28;19956;-68
2021/12/23 08:42:49;;;;;;;;;;;0.70;91.80;;;;;;5088171;28;19956;-67
2021/12/23 08:45:14;;;;;;;;;;;0.90;91.50;;;;;;5093104;28;20565;-67
2021/12/23 08:47:40;;;;;;;;;;;1.20;91.20;;;;;;5100058;28;20051;-69
2021/12/23 08:50:07;;;;;;;;;;;1.30;90.20;;;;;;5089921;28;20029;-64
2021/12/23 08:52:33;;;;;;;;;;;1.30;89.70;;;;;;5090821;28;20036;-65
2021/12/23 08:54:59;;;;;;;;;;;1.50;89.90;;;;;;5090153;28;19949;-65
2021/12/23 08:57:25;;;;;;;;;;;1.50;89.80;;;;;;5089252;28;19947;-65
2021/12/23 08:59:50;;;;;;;;;;;1.50;89.60;;;;;;5090878;28;20329;-66
2021/12/23 09:02:16;;;;;;;;;;;1.50;89.60;;;;;;5087998;28;19956;-67
2021/12/23 09:05:56;;;;;;;;;;;1.50;89.90;;;;;;5121119;27;19949;-67
2021/12/23 09:08:22;;;;;;;;;;;1.50;90.50;;;;;;5111283;28;19941;-72
2021/12/23 09:10:47;;;;;;;;;;;1.50;90.60;;;;;;5130672;28;20322;-66
2021/12/23 09:13:13;;;;;;;;;;;1.50;90.50;;;;;;5126034;28;19999;-68
2021/12/23 09:15:38;;;;;;;;;;;1.40;90.40;;;;;;5126150;28;20388;-67
2021/12/23 09:18:04;;;;;;;;;;;1.20;91.00;;;;;;5122894;28;20334;-66
2021/12/23 09:20:29;;;;;;;;;;;1.20;91.20;;;;;;5127412;28;20304;-67
2021/12/23 09:22:55;;;;;;;;;;;1.20;91.10;;;;;;5128469;28;20351;-67
2021/12/23 09:25:25;;;;;;;;;;;1.10;91.40;;;;;;5123509;28;19947;-67
2021/12/23 09:28:03;;;;;;;;;;;1.30;91.50;;;;;;5122907;28;19949;-67
2021/12/23 09:34:58;;;;;;;;;;;1.50;90.80;;;;;;5092219;27;19950;-67
2021/12/23 09:37:24;;;;;;;;;;;1.60;90.00;;;;;;5091231;28;19981;-67
2021/12/23 09:39:54;;;;;;;;;;;1.60;89.90;;;;;;5085757;28;19979;-68
2021/12/23 09:42:22;;;;;;;;;;;1.70;89.60;;;;;;5088229;28;19939;-67
2021/12/23 09:44:48;;;;;;;;;;;1.60;89.50;;;;;;5087062;28;20449;-67
2021/12/23 09:47:14;;;;;;;;;;;1.50;89.60;;;;;;5089061;28;19945;-67
2021/12/23 09:49:39;;;;;;;;;;;1.50;89.60;;;;;;5094252;28;19948;-71
2021/12/23 09:52:06;;;;;;;;;;;1.60;89.80;;;;;;5092871;28;19954;-68
2021/12/23 09:54:34;;;;;;;;;;;1.60;89.70;;;;;;5094664;28;20037;-66
2021/12/23 09:57:01;;;;;;;;;;;1.60;89.70;;;;;;5110522;28;19968;-72
2021/12/23 09:59:27;;;;;;;;;;;1.60;89.70;;;;;;5102421;28;19948;-75
2021/12/23 10:01:53;;;;;;;;;;;1.80;90.00;;;;;;5097682;28;19943;-65
2021/12/23 10:04:19;;;;;;;;;;;1.80;89.70;;;;;;5086647;28;19962;-65
2021/12/23 10:06:45;;;;;;;;;;;1.80;89.10;;;;;;5091193;28;19948;-66
2021/12/23 10:09:12;;;;;;;;;;;1.80;89.80;;;;;;5089693;28;19994;-66
2021/12/23 10:31:21;;;;;;;;;;;2.50;87.40;;;;;;5087817;28;19970;-67
2021/12/23 10:33:51;;;;;;;;;;;2.50;87.10;;;;;;5098940;28;20136;-65
2021/12/23 10:39:19;;;;;;;;;;;2.70;85.90;;;;;;5100283;28;19952;-68
2021/12/23 10:41:45;;;;;;;;;;;2.80;85.60;;;;;;5089904;28;19957;-68
2021/12/23 10:44:10;;;;;;;;;;;2.70;85.80;;;;;;5091186;28;20036;-68
2021/12/23 10:46:38;;;;;;;;;;;2.60;86.50;;;;;;5092829;28;20315;-65
2021/12/23 10:49:30;;;;;;;;;;;2.50;86.80;;;;;;5081875;28;20323;-68
2021/12/23 11:00:16;;;;;;;;;;;2.60;86.30;;;;;;5073625;28;19957;-67
2021/12/23 11:03:03;;;;;;;;;;;2.50;86.80;;;;;;5065246;28;19948;-67
2021/12/23 11:05:34;;;;;;;;;;;2.50;86.60;;;;;;5069883;28;20428;-67
2021/12/23 11:37:56;;;;;;;;;;;4.00;82.20;;;;;;5074510;28;19941;-65
2021/12/23 11:40:26;;;;;;;;;;;4.20;82.10;;;;;;5073065;28;19937;-64
2021/12/23 11:43:54;;;;;;;;;;;4.40;81.30;;;;;;5074424;28;19930;-64
2021/12/23 11:45:50;;;;;;;;;;;4.70;79.80;;;;;;5069330;28;19936;-64
2021/12/23 11:48:16;;;;;;;;;;;5.00;78.70;;;;;;5074334;28;20401;-67
2021/12/23 11:50:54;;;;;;;;;;;5.40;77.20;;;;;;5074567;28;20023;-64
2021/12/23 11:53:21;;;;;;;;;;;5.40;75.80;;;;;;5074175;28;20026;-64
2021/12/23 11:55:48;;;;;;;;;;;5.70;75.40;;;;;;5073976;28;19941;-64
2021/12/23 11:58:14;;;;;;;;;;;5.80;74.10;;;;;;5073301;28;19940;-64
2021/12/23 12:00:43;;;;;;;;;;;5.70;74.20;;;;;;5073885;28;19988;-64
2021/12/23 12:03:09;;;;;;;;;;;5.80;75.70;;;;;;5074034;28;19934;-64
2021/12/23 12:05:35;;;;;;;;;;;5.80;74.80;;;;;;5073980;28;19931;-64
2021/12/23 12:08:12;;;;;;;;;;;5.70;75.30;;;;;;5074097;28;19929;-64
2021/12/23 12:10:38;;;;;;;;;;;5.70;75.80;;;;;;5073856;28;19928;-64
2021/12/23 12:13:07;;;;;;;;;;;5.90;75.70;;;;;;5072319;28;19982;-65
2021/12/23 12:15:39;;;;;;;;;;;5.90;75.00;;;;;;5074045;28;19939;-67
2021/12/23 12:18:05;;;;;;;;;;;5.70;75.30;;;;;;5073813;28;19935;-65
2021/12/23 12:20:37;;;;;;;;;;;5.50;76.70;;;;;;5073531;28;19939;-64
2021/12/23 12:23:11;;;;;;;;;;;5.40;76.80;;;;;;5073415;28;19953;-67
2021/12/23 12:25:41;;;;;;;;;;;5.50;77.00;;;;;;5073303;28;19929;-66
2021/12/23 12:28:11;;;;;;;;;;;5.40;77.10;;;;;;5072600;28;19943;-66
2021/12/23 12:30:51;;;;;;;;;;;5.50;77.20;;;;;;5071684;28;20406;-65
2021/12/23 12:33:19;;;;;;;;;;;5.70;76.30;;;;;;5075472;28;19995;-67
2021/12/23 12:36:03;;;;;;;;;;;5.60;76.00;;;;;;5069952;28;20045;-65
2021/12/23 12:38:29;;;;;;;;;;;5.80;76.40;;;;;;5065399;28;20265;-65
2021/12/23 12:41:21;;;;;;;;;;;6.10;75.00;;;;;;5061876;28;20003;-65
2021/12/23 12:43:54;;;;;;;;;;;6.20;74.40;;;;;;5066125;28;19946;-66
2021/12/23 12:47:21;;;;;;;;;;;6.10;73.90;;;;;;5065233;28;19940;-66
2021/12/23 12:49:37;;;;;;;;;;;6.00;74.60;;;;;;5046487;28;19945;-65
2021/12/23 12:52:08;;;;;;;;;;;6.00;74.30;;;;;;5070706;28;19942;-65
2021/12/23 12:54:39;;;;;;;;;;;5.80;75.30;;;;;;5072709;28;19945;-64
2021/12/23 12:57:05;;;;;;;;;;;5.90;75.70;;;;;;5071675;28;20016;-64
2021/12/23 12:59:35;;;;;;;;;;;6.00;75.00;;;;;;5069732;28;19943;-66
2021/12/23 13:02:01;;;;;;;;;;;6.00;75.20;;;;;;5071394;28;20055;-69
2021/12/23 13:04:32;;;;;;;;;;;6.00;74.70;;;;;;5070548;28;20437;-73
2021/12/23 13:07:11;;;;;;;;;;;6.00;74.80;;;;;;5071538;28;19998;-74
2021/12/23 13:09:47;;;;;;;;;;;5.80;75.40;;;;;;5070156;28;19951;-69
2021/12/23 13:12:27;;;;;;;;;;;5.60;76.20;;;;;;5070853;28;20051;-64
2021/12/23 13:15:15;;;;;;;;;;;5.50;77.30;;;;;;5072804;28;19960;-67
2021/12/23 13:17:48;;;;;;;;;;;5.20;78.10;;;;;;5064768;28;20416;-67
2021/12/23 13:20:15;;;;;;;;;;;5.20;77.30;;;;;;5062837;28;20409;-67
2021/12/23 13:22:43;;;;;;;;;;;5.10;77.60;;;;;;5069035;28;19959;-68
2021/12/23 13:25:09;;;;;;;;;;;4.90;78.10;;;;;;5071450;28;20027;-72
2021/12/23 13:27:37;;;;;;;;;;;4.90;78.30;;;;;;5060703;28;19946;-67
2021/12/23 13:30:04;;;;;;;;;;;5.00;77.70;;;;;;5090864;28;19991;-72
2021/12/23 13:32:30;;;;;;;;;;;5.10;77.80;;;;;;5065819;28;19978;-69
2021/12/23 13:34:56;;;;;;;;;;;5.30;76.90;;;;;;5071023;28;19966;-68
2021/12/23 13:37:26;;;;;;;;;;;5.00;77.70;;;;;;5077628;28;20018;-71
2021/12/23 13:39:52;;;;;;;;;;;4.80;78.50;;;;;;5079833;28;20019;-70
2021/12/23 13:42:17;;;;;;;;;;;4.70;79.00;;;;;;5076874;28;19944;-70
2021/12/23 13:44:46;;;;;;;;;;;4.60;79.50;;;;;;5072368;28;19943;-70
2021/12/23 13:47:17;;;;;;;;;;;4.50;80.00;;;;;;5073238;28;19951;-70
2021/12/23 13:49:51;;;;;;;;;;;4.50;80.00;;;;;;5069800;28;19941;-70
2021/12/23 13:52:20;;;;;;;;;;;4.40;80.00;;;;;;5065075;28;19989;-72
2021/12/23 13:54:46;;;;;;;;;;;4.30;80.50;;;;;;5069766;28;19984;-72
2021/12/23 13:57:16;;;;;;;;;;;3.90;81.80;;;;;;5070282;28;20033;-72
2021/12/23 13:59:43;;;;;;;;;;;3.70;82.20;;;;;;5066998;28;19946;-72
2021/12/23 14:02:10;;;;;;;;;;;3.60;83.00;;;;;;5066548;28;19987;-72
2021/12/23 14:04:40;;;;;;;;;;;3.50;83.40;;;;;;5065440;28;20452;-72
2021/12/23 14:07:06;;;;;;;;;;;3.50;83.50;;;;;;5068077;28;20463;-72
2021/12/23 14:09:40;;;;;;;;;;;3.40;84.00;;;;;;5071147;28;19946;-72
2021/12/23 14:14:56;;;;;;;;;;;3.20;84.60;;;;;;5129598;27;20283;-71
2021/12/23 14:17:25;;;;;;;;;;;3.10;84.30;;;;;;5123823;28;19947;-70
2021/12/23 14:23:11;;;;;;;;;;;3.10;84.40;;;;;;5124255;28;19983;-70
2021/12/23 14:25:29;;;;;;;;;;;3.00;85.20;;;;;;5127547;27;19950;-71
2021/12/23 14:27:55;;;;;;;;;;;3.10;85.10;;;;;;5128001;28;19947;-71
2021/12/23 14:30:32;;;;;;;;;;;3.20;84.90;;;;;;5103355;28;20301;-71
2021/12/23 14:33:11;;;;;;;;;;;3.10;84.40;;;;;;5128738;27;19968;-71
2021/12/23 14:35:37;;;;;;;;;;;3.20;84.60;;;;;;5127657;28;19941;-74
2021/12/23 14:38:03;;;;;;;;;;;3.20;84.70;;;;;;5115891;28;19949;-77
2021/12/23 14:40:28;;;;;;;;;;;3.30;84.60;;;;;;5137288;28;19950;-71
2021/12/23 14:42:58;;;;;;;;;;;3.30;84.50;;;;;;5137839;28;19950;-70
2021/12/23 14:47:25;;;;;;;;;;;3.40;83.70;;;;;;5109374;27;19947;-74
2021/12/23 14:52:18;;;;;;;;;;;3.30;83.80;;;;;;5080034;28;19949;-83
2021/12/23 14:54:49;;;;;;;;;;;3.40;83.60;;;;;;5073053;28;19958;-80
2021/12/23 14:57:16;;;;;;;;;;;3.30;83.80;;;;;;5070039;28;19946;-76
2021/12/23 14:59:46;;;;;;;;;;;3.30;83.90;;;;;;5081305;28;20145;-76
2021/12/23 15:02:12;;;;;;;;;;;3.20;84.20;;;;;;5084225;28;20051;-76
2021/12/23 15:04:54;;;;;;;;;;;3.10;84.30;;;;;;5080733;28;20408;-76
2021/12/23 15:07:20;;;;;;;;;;;3.00;84.20;;;;;;5106926;28;19952;-76
2021/12/23 15:09:55;;;;;;;;;;;2.90;84.60;;;;;;5077513;28;20313;-75
2021/12/23 15:12:20;;;;;;;;;;;2.60;85.40;;;;;;5077282;28;20004;-76
2021/12/23 15:14:48;;;;;;;;;;;2.50;85.90;;;;;;5082204;28;19941;-76
2021/12/23 15:17:18;;;;;;;;;;;2.40;86.40;;;;;;5104967;28;20348;-74
2021/12/23 15:19:50;;;;;;;;;;;2.30;87.00;;;;;;5083550;28;19972;-75
2021/12/23 15:22:19;;;;;;;;;;;2.20;87.40;;;;;;5081164;28;19989;-74
2021/12/23 15:24:46;;;;;;;;;;;2.10;87.50;;;;;;5106526;27;20393;-74
2021/12/23 15:27:22;;;;;;;;;;;2.10;87.90;;;;;;5081329;28;20043;-75
2021/12/23 15:29:48;;;;;;;;;;;2.00;88.00;;;;;;5081653;28;19953;-75
2021/12/23 15:32:18;;;;;;;;;;;1.90;88.20;;;;;;5070001;28;20029;-74
2021/12/23 15:34:59;;;;;;;;;;;1.80;88.50;;;;;;5080902;28;19939;-75
2021/12/23 15:37:26;;;;;;;;;;;1.80;89.00;;;;;;5078030;28;19939;-74
2021/12/23 15:39:53;;;;;;;;;;;1.80;89.40;;;;;;5077958;28;19971;-74
2021/12/23 15:42:19;;;;;;;;;;;1.70;89.30;;;;;;5085164;28;20349;-75